Time;durP1;ratioP1;P1;durP2;ratioP2;P2;SDS_P1;SDS_P2;PMS_P1;PMS_P2;Temp;Humidity;BMP_temperature;BMP_pressure;BME280_temperature;BME280_humidity;BME280_pressure;Samples;Min_cycle;Max_cycle;Signal;HPM_P1;HPM_P2
2023/08/18 00:00:15;;;;;;;3.00;2.80;;;23.50;99.90;;;;;;5048371;28;20289;-70
2023/08/18 00:02:42;;;;;;;3.35;3.05;;;23.50;99.90;;;;;;5042642;28;20240;-70
2023/08/18 00:05:09;;;;;;;3.22;2.92;;;23.50;99.90;;;;;;5038045;28;20207;-70
2023/08/18 00:07:34;;;;;;;3.45;3.25;;;23.50;99.90;;;;;;5061529;28;20186;-69
2023/08/18 00:10:04;;;;;;;3.58;3.28;;;23.50;99.90;;;;;;5070194;28;20295;-70
2023/08/18 00:12:30;;;;;;;3.33;3.08;;;23.50;99.90;;;;;;5056678;28;20224;-70
2023/08/18 00:14:56;;;;;;;3.85;3.55;;;23.50;99.90;;;;;;5048218;28;20209;-71
2023/08/18 00:17:21;;;;;;;2.95;2.75;;;23.50;99.90;;;;;;5045130;28;20273;-70
2023/08/18 00:19:47;;;;;;;3.83;3.20;;;23.50;99.90;;;;;;5051581;28;20209;-71
2023/08/18 00:22:13;;;;;;;3.47;3.00;;;23.50;99.90;;;;;;5056317;28;20213;-70
2023/08/18 00:24:39;;;;;;;4.20;3.30;;;23.50;99.90;;;;;;5050936;28;20213;-70
2023/08/18 00:27:05;;;;;;;3.20;2.90;;;23.50;99.90;;;;;;5036526;28;20201;-70
2023/08/18 00:29:31;;;;;;;3.90;2.78;;;23.50;99.90;;;;;;5036705;28;20186;-71
2023/08/18 00:31:59;;;;;;;3.10;2.90;;;23.50;99.90;;;;;;5044100;28;20189;-70
2023/08/18 00:34:25;;;;;;;3.30;3.00;;;23.40;99.90;;;;;;5039217;28;20288;-71
2023/08/18 00:36:51;;;;;;;3.42;3.10;;;23.40;99.90;;;;;;5049822;28;20186;-71
2023/08/18 00:39:17;;;;;;;3.70;3.40;;;23.50;99.90;;;;;;5023365;28;20292;-71
2023/08/18 00:41:43;;;;;;;4.18;3.45;;;23.50;99.90;;;;;;5060110;28;20228;-71
2023/08/18 00:44:09;;;;;;;3.70;3.40;;;23.50;99.90;;;;;;5035940;28;20213;-70
2023/08/18 00:46:36;;;;;;;3.30;3.00;;;23.40;99.90;;;;;;5049093;28;20181;-71
2023/08/18 00:49:06;;;;;;;3.40;3.00;;;23.50;99.90;;;;;;5055818;28;20220;-70
2023/08/18 00:51:34;;;;;;;3.08;2.83;;;23.50;99.90;;;;;;5033683;28;20190;-71
2023/08/18 00:54:03;;;;;;;3.67;3.00;;;23.40;99.90;;;;;;5042448;28;20214;-71
2023/08/18 00:56:29;;;;;;;3.42;2.95;;;23.40;99.90;;;;;;5048069;28;20268;-70
2023/08/18 00:58:54;;;;;;;3.28;3.08;;;23.50;99.90;;;;;;5043875;28;20214;-70
2023/08/18 01:01:21;;;;;;;3.72;3.15;;;23.50;99.90;;;;;;5053181;28;20186;-70
2023/08/18 01:03:47;;;;;;;3.72;3.42;;;23.40;99.90;;;;;;5033051;28;20206;-70
2023/08/18 01:06:13;;;;;;;3.33;3.10;;;23.50;99.90;;;;;;5053520;28;20247;-70
2023/08/18 01:08:39;;;;;;;3.53;3.22;;;23.40;99.90;;;;;;5032361;28;20178;-70
2023/08/18 01:11:37;;;;;;;3.13;2.90;;;23.50;99.90;;;;;;5055316;28;20272;-70
2023/08/18 01:14:21;;;;;;;3.85;3.10;;;23.50;99.90;;;;;;5064893;28;20197;-70
2023/08/18 01:17:06;;;;;;;3.05;2.75;;;23.40;99.90;;;;;;5044019;28;20186;-71
2023/08/18 01:19:34;;;;;;;3.17;2.90;;;23.40;99.90;;;;;;5035338;28;20218;-71
2023/08/18 01:22:02;;;;;;;3.42;3.13;;;23.40;99.90;;;;;;5035695;28;20186;-71
2023/08/18 01:24:29;;;;;;;3.10;2.90;;;23.40;99.90;;;;;;5060005;28;20214;-70
2023/08/18 01:26:54;;;;;;;3.55;3.25;;;23.40;99.90;;;;;;5042677;28;20217;-71
2023/08/18 01:29:23;;;;;;;3.28;2.97;;;23.40;99.90;;;;;;5066919;28;20221;-70
2023/08/18 01:31:59;;;;;;;3.05;2.83;;;23.40;99.90;;;;;;5041232;28;20239;-71
2023/08/18 01:34:29;;;;;;;3.38;3.10;;;23.40;99.90;;;;;;5060472;28;20206;-70
2023/08/18 01:36:58;;;;;;;3.30;3.08;;;23.40;99.90;;;;;;5038651;28;20198;-71
2023/08/18 01:39:27;;;;;;;3.05;2.85;;;23.40;99.90;;;;;;5030398;28;20300;-70
2023/08/18 01:41:53;;;;;;;3.05;2.85;;;23.40;99.90;;;;;;5048886;28;20190;-70
2023/08/18 01:44:19;;;;;;;2.92;2.72;;;23.40;99.90;;;;;;5034236;28;20216;-70
2023/08/18 01:46:46;;;;;;;3.15;2.85;;;23.40;99.90;;;;;;5026658;28;20190;-71
2023/08/18 01:49:13;;;;;;;3.15;2.95;;;23.40;99.90;;;;;;5032431;28;20196;-71
2023/08/18 01:51:39;;;;;;;3.15;2.85;;;23.40;99.90;;;;;;5038139;28;20661;-71
2023/08/18 01:54:05;;;;;;;2.88;2.67;;;23.40;99.90;;;;;;5034363;28;20777;-70
2023/08/18 01:56:31;;;;;;;2.90;2.70;;;23.40;99.90;;;;;;5054202;28;20185;-69
2023/08/18 01:58:57;;;;;;;2.80;2.60;;;23.40;99.90;;;;;;5034796;28;20206;-70
2023/08/18 02:01:23;;;;;;;3.40;2.92;;;23.40;99.90;;;;;;5049899;28;20208;-70
2023/08/18 02:03:48;;;;;;;3.28;3.05;;;23.40;99.90;;;;;;5045004;28;20218;-71
2023/08/18 02:06:14;;;;;;;3.20;3.00;;;23.40;99.90;;;;;;5035247;28;20182;-70
2023/08/18 02:08:40;;;;;;;2.80;2.60;;;23.40;99.90;;;;;;5046196;28;20181;-71
2023/08/18 02:11:06;;;;;;;3.17;2.90;;;23.40;99.90;;;;;;5054675;28;20186;-70
2023/08/18 02:13:33;;;;;;;3.33;3.03;;;23.40;99.90;;;;;;5046240;28;20175;-70
2023/08/18 02:15:59;;;;;;;3.30;2.88;;;23.40;99.90;;;;;;5030831;28;20187;-71
2023/08/18 02:18:27;;;;;;;3.63;3.17;;;23.40;99.90;;;;;;5050542;28;20284;-70
2023/08/18 02:21:00;;;;;;;2.70;2.50;;;23.40;99.90;;;;;;5034469;28;20313;-71
2023/08/18 02:23:28;;;;;;;3.10;2.80;;;23.30;99.90;;;;;;5037745;28;20295;-70
2023/08/18 02:26:05;;;;;;;3.20;2.90;;;23.30;99.90;;;;;;5050867;28;20195;-70
2023/08/18 02:28:33;;;;;;;3.53;3.22;;;23.40;99.90;;;;;;5052515;28;20228;-71
2023/08/18 02:31:07;;;;;;;2.97;2.67;;;23.40;99.90;;;;;;5031341;28;20183;-70
2023/08/18 02:33:34;;;;;;;3.05;2.78;;;23.30;99.90;;;;;;5033121;28;20186;-70
2023/08/18 02:36:01;;;;;;;3.38;2.72;;;23.40;99.90;;;;;;5037269;28;20217;-71
2023/08/18 02:38:30;;;;;;;2.70;2.50;;;23.30;99.90;;;;;;5019404;28;20190;-71
2023/08/18 02:40:56;;;;;;;3.33;2.97;;;23.30;99.90;;;;;;5023563;28;20189;-71
2023/08/18 02:43:23;;;;;;;3.10;2.90;;;23.30;99.90;;;;;;5044285;28;20213;-70
2023/08/18 02:45:57;;;;;;;3.17;2.88;;;23.40;99.90;;;;;;5046718;28;20197;-71
2023/08/18 02:48:26;;;;;;;2.83;2.63;;;23.40;99.90;;;;;;5037347;28;20194;-70
2023/08/18 02:51:07;;;;;;;2.75;2.50;;;23.30;99.90;;;;;;5037422;28;20193;-71
2023/08/18 02:53:34;;;;;;;3.15;2.85;;;23.40;99.90;;;;;;5037046;28;20190;-71
2023/08/18 02:56:01;;;;;;;3.10;2.90;;;23.30;99.90;;;;;;5022879;28;20193;-70
2023/08/18 02:58:30;;;;;;;2.83;2.63;;;23.30;99.90;;;;;;5035562;28;20189;-69
2023/08/18 03:01:02;;;;;;;2.70;2.50;;;23.30;99.90;;;;;;5046183;28;20201;-71
2023/08/18 03:03:27;;;;;;;3.00;2.72;;;23.30;99.90;;;;;;5050136;28;20234;-70
2023/08/18 03:05:53;;;;;;;3.33;2.80;;;23.30;99.90;;;;;;5063155;28;20258;-70
2023/08/18 03:08:19;;;;;;;3.40;2.75;;;23.30;99.90;;;;;;5053407;28;20190;-71
2023/08/18 03:10:57;;;;;;;2.75;2.55;;;23.30;99.90;;;;;;5025247;28;20282;-70
2023/08/18 03:13:24;;;;;;;2.72;2.63;;;23.30;99.90;;;;;;5030730;28;20255;-70
2023/08/18 03:15:49;;;;;;;2.53;2.38;;;23.30;99.90;;;;;;5041717;28;20583;-71
2023/08/18 03:18:15;;;;;;;2.60;2.40;;;23.30;99.90;;;;;;5041739;28;20202;-70
2023/08/18 03:20:41;;;;;;;2.90;2.60;;;23.30;99.90;;;;;;5036566;28;20251;-71
2023/08/18 03:23:08;;;;;;;2.83;2.63;;;23.30;99.90;;;;;;5037938;28;20206;-71
2023/08/18 03:25:33;;;;;;;2.63;2.42;;;23.30;99.90;;;;;;5041287;28;20236;-71
2023/08/18 03:27:59;;;;;;;2.92;2.58;;;23.30;99.90;;;;;;5028469;28;20224;-70
2023/08/18 03:30:25;;;;;;;3.55;2.45;;;23.30;99.90;;;;;;5031092;28;20568;-70
2023/08/18 03:32:55;;;;;;;3.30;2.80;;;23.30;99.90;;;;;;5021107;28;20281;-70
2023/08/18 03:35:21;;;;;;;2.90;2.70;;;23.30;99.90;;;;;;5042387;28;20222;-70
2023/08/18 03:37:46;;;;;;;2.90;2.70;;;23.30;99.90;;;;;;5042109;28;20196;-71
2023/08/18 03:40:12;;;;;;;2.60;2.40;;;23.30;99.90;;;;;;5049903;28;20206;-71
2023/08/18 03:42:38;;;;;;;2.78;2.58;;;23.30;99.90;;;;;;5054821;28;20222;-71
2023/08/18 03:45:06;;;;;;;2.60;2.40;;;23.30;99.90;;;;;;5042996;28;20206;-71
2023/08/18 03:47:31;;;;;;;2.83;2.63;;;23.30;99.90;;;;;;5055806;28;20181;-70
2023/08/18 03:49:57;;;;;;;2.70;2.50;;;23.30;99.90;;;;;;5050775;28;20203;-70
2023/08/18 03:52:23;;;;;;;3.70;2.63;;;23.30;99.90;;;;;;5056804;28;20183;-70
2023/08/18 03:54:50;;;;;;;2.72;2.47;;;23.30;99.90;;;;;;5048644;28;20237;-71
2023/08/18 03:57:15;;;;;;;2.85;2.47;;;23.30;99.90;;;;;;5024559;28;20221;-70
2023/08/18 03:59:41;;;;;;;2.53;2.33;;;23.30;99.90;;;;;;5039338;28;20267;-71
2023/08/18 04:02:07;;;;;;;2.80;2.35;;;23.30;99.90;;;;;;5053059;28;20191;-70
2023/08/18 04:04:33;;;;;;;2.60;2.40;;;23.30;99.90;;;;;;5033838;28;20206;-70
2023/08/18 04:06:58;;;;;;;2.53;2.40;;;23.30;99.90;;;;;;5041215;28;20208;-71
2023/08/18 04:09:26;;;;;;;2.65;2.40;;;23.30;99.90;;;;;;5031823;28;20196;-71
2023/08/18 04:11:52;;;;;;;3.15;2.70;;;23.30;99.90;;;;;;5021488;28;20277;-71
2023/08/18 04:14:18;;;;;;;2.30;2.20;;;23.30;99.90;;;;;;5019887;28;20651;-70
2023/08/18 04:16:45;;;;;;;2.35;2.25;;;23.30;99.90;;;;;;5052643;28;20183;-71
2023/08/18 04:19:12;;;;;;;2.65;2.47;;;23.30;99.90;;;;;;5020204;28;20221;-71
2023/08/18 04:21:37;;;;;;;2.95;2.30;;;23.30;99.90;;;;;;5055263;28;20179;-71
2023/08/18 04:24:04;;;;;;;2.75;2.55;;;23.30;99.90;;;;;;5048138;28;20250;-70
2023/08/18 04:26:30;;;;;;;2.90;2.70;;;23.30;99.90;;;;;;5022582;28;20211;-70
2023/08/18 04:28:56;;;;;;;2.47;2.30;;;23.30;99.90;;;;;;5029404;28;20221;-71
2023/08/18 04:31:22;;;;;;;2.70;2.50;;;23.30;99.90;;;;;;5036839;28;20186;-70
2023/08/18 04:33:52;;;;;;;2.58;2.38;;;23.30;99.90;;;;;;5032695;28;20198;-70
2023/08/18 04:36:18;;;;;;;2.50;2.30;;;23.30;99.90;;;;;;5040617;28;20243;-71
2023/08/18 04:38:43;;;;;;;2.60;2.40;;;23.20;99.90;;;;;;5047018;28;20233;-70
2023/08/18 04:41:17;;;;;;;2.60;2.40;;;23.30;99.90;;;;;;5039798;28;20202;-71
2023/08/18 04:43:43;;;;;;;2.85;2.55;;;23.30;99.90;;;;;;5026514;28;20709;-70
2023/08/18 04:46:09;;;;;;;2.78;2.45;;;23.30;99.90;;;;;;5039228;28;20179;-70
2023/08/18 04:48:35;;;;;;;2.90;2.60;;;23.20;99.90;;;;;;5052517;28;20182;-71
2023/08/18 04:51:03;;;;;;;3.00;2.80;;;23.30;99.90;;;;;;5039376;28;20186;-71
2023/08/18 04:53:29;;;;;;;3.08;2.78;;;23.30;99.90;;;;;;5050091;28;20263;-70
2023/08/18 04:55:55;;;;;;;2.60;2.40;;;23.30;99.90;;;;;;5043632;28;20247;-70
2023/08/18 04:58:21;;;;;;;2.50;2.30;;;23.30;99.90;;;;;;5055729;28;20190;-71
2023/08/18 05:00:47;;;;;;;2.20;2.10;;;23.20;99.90;;;;;;5053181;28;20210;-71
2023/08/18 05:03:15;;;;;;;2.45;2.25;;;23.30;99.90;;;;;;5030754;28;20244;-70
2023/08/18 05:06:09;;;;;;;2.75;2.50;;;23.20;99.90;;;;;;5043899;28;20205;-70
2023/08/18 05:08:40;;;;;;;2.85;2.40;;;23.30;99.90;;;;;;5036743;28;20189;-71
2023/08/18 05:11:09;;;;;;;2.60;2.40;;;23.20;99.90;;;;;;5042395;28;20182;-71
2023/08/18 05:13:36;;;;;;;2.80;2.60;;;23.20;99.90;;;;;;5043515;28;20269;-70
2023/08/18 05:16:03;;;;;;;2.30;2.20;;;23.20;99.90;;;;;;5040323;28;20253;-70
2023/08/18 05:18:30;;;;;;;2.30;2.20;;;23.20;99.90;;;;;;5030279;28;20623;-69
2023/08/18 05:21:00;;;;;;;2.40;2.30;;;23.20;99.90;;;;;;5055830;28;20208;-70
2023/08/18 05:23:27;;;;;;;2.50;2.13;;;23.20;99.90;;;;;;5035474;28;20213;-70
2023/08/18 05:25:56;;;;;;;2.22;2.03;;;23.20;99.90;;;;;;5035533;28;20244;-71
2023/08/18 05:28:24;;;;;;;2.78;2.58;;;23.20;99.90;;;;;;5061161;28;20205;-70
2023/08/18 05:30:52;;;;;;;2.42;2.22;;;23.20;99.90;;;;;;5030041;28;20228;-71
2023/08/18 05:33:18;;;;;;;2.50;2.30;;;23.20;99.90;;;;;;5055461;28;20197;-70
2023/08/18 05:35:44;;;;;;;2.65;2.17;;;23.20;99.90;;;;;;5065474;28;20205;-70
2023/08/18 05:38:10;;;;;;;2.22;2.10;;;23.20;99.90;;;;;;5053800;28;20179;-71
2023/08/18 05:40:48;;;;;;;3.20;2.20;;;23.20;99.90;;;;;;5038561;28;20206;-70
2023/08/18 05:43:16;;;;;;;2.55;2.10;;;23.20;99.90;;;;;;5038201;28;20181;-71
2023/08/18 05:45:45;;;;;;;2.10;1.90;;;23.20;99.90;;;;;;5056083;28;20236;-71
2023/08/18 05:48:11;;;;;;;2.45;2.20;;;23.20;99.90;;;;;;5046703;28;20767;-71
2023/08/18 05:50:37;;;;;;;2.45;2.28;;;23.20;99.90;;;;;;5045844;28;20196;-70
2023/08/18 05:53:04;;;;;;;2.38;2.22;;;23.20;99.90;;;;;;5051094;28;20194;-70
2023/08/18 05:55:30;;;;;;;2.30;2.10;;;23.20;99.90;;;;;;5051509;28;20681;-71
2023/08/18 05:58:03;;;;;;;2.33;2.10;;;23.20;99.90;;;;;;5026435;28;20353;-70
2023/08/18 06:00:30;;;;;;;3.35;2.10;;;23.20;99.90;;;;;;5047148;28;20846;-71
2023/08/18 06:02:57;;;;;;;2.28;2.08;;;23.20;99.90;;;;;;5060593;28;20804;-71
2023/08/18 06:05:26;;;;;;;2.55;2.28;;;23.20;99.90;;;;;;5060913;28;20657;-71
2023/08/18 06:07:52;;;;;;;2.42;2.22;;;23.20;99.90;;;;;;5026325;28;20269;-71
2023/08/18 06:10:18;;;;;;;1.92;1.83;;;23.20;99.90;;;;;;5051249;28;20282;-71
2023/08/18 06:12:43;;;;;;;2.25;2.10;;;23.20;99.90;;;;;;5043171;28;20253;-70
2023/08/18 06:15:10;;;;;;;2.40;2.20;;;23.20;99.90;;;;;;5036121;28;20218;-71
2023/08/18 06:17:35;;;;;;;2.00;1.90;;;23.20;99.90;;;;;;5043003;28;20269;-70
2023/08/18 06:20:01;;;;;;;2.05;1.95;;;23.20;99.90;;;;;;5034670;28;20297;-71
2023/08/18 06:22:27;;;;;;;1.98;1.88;;;23.20;99.90;;;;;;5034351;28;20194;-69
2023/08/18 06:24:53;;;;;;;2.25;2.03;;;23.20;99.90;;;;;;5059151;28;20206;-70
2023/08/18 06:27:19;;;;;;;1.95;1.85;;;23.20;99.90;;;;;;5034174;28;20187;-70
2023/08/18 06:29:44;;;;;;;1.90;1.73;;;23.20;99.90;;;;;;5034212;28;20205;-70
2023/08/18 06:32:10;;;;;;;2.80;2.40;;;23.20;99.90;;;;;;5044129;28;20197;-71
2023/08/18 06:34:36;;;;;;;2.28;1.92;;;23.20;99.90;;;;;;5033978;28;20213;-70
2023/08/18 06:37:02;;;;;;;2.00;1.90;;;23.20;99.90;;;;;;5034409;28;20590;-70
2023/08/18 06:39:28;;;;;;;2.08;1.88;;;23.20;99.90;;;;;;5038003;28;20206;-70
2023/08/18 06:41:55;;;;;;;2.20;2.00;;;23.20;99.90;;;;;;5052560;28;20213;-70
2023/08/18 06:44:21;;;;;;;2.00;1.90;;;23.20;99.90;;;;;;5033834;28;20264;-71
2023/08/18 06:46:47;;;;;;;2.20;2.03;;;23.20;99.90;;;;;;5042357;28;20668;-70
2023/08/18 06:49:13;;;;;;;2.53;2.30;;;23.20;99.90;;;;;;5044841;28;20186;-71
2023/08/18 06:51:39;;;;;;;2.00;1.90;;;23.20;99.90;;;;;;5037665;28;20198;-70
2023/08/18 06:54:05;;;;;;;2.10;2.00;;;23.30;99.90;;;;;;5025636;28;20213;-70
2023/08/18 06:56:31;;;;;;;2.00;1.90;;;23.30;99.90;;;;;;5046587;28;20190;-70
2023/08/18 06:58:57;;;;;;;3.38;2.10;;;23.20;99.90;;;;;;5052770;28;20239;-71
2023/08/18 07:01:22;;;;;;;2.15;2.05;;;23.20;99.90;;;;;;5052693;28;20737;-70
2023/08/18 07:03:48;;;;;;;2.75;2.00;;;23.30;99.90;;;;;;5038516;28;20210;-70
2023/08/18 07:06:14;;;;;;;2.53;2.10;;;23.30;99.90;;;;;;5042067;28;20222;-70
2023/08/18 07:08:40;;;;;;;2.17;2.08;;;23.20;99.90;;;;;;5060122;28;20218;-69
2023/08/18 07:11:06;;;;;;;2.05;1.85;;;23.30;99.90;;;;;;5040364;28;20186;-70
2023/08/18 07:13:31;;;;;;;2.53;2.33;;;23.30;99.90;;;;;;5044489;28;20178;-70
2023/08/18 07:15:57;;;;;;;1.90;1.80;;;23.30;99.90;;;;;;5050129;28;20197;-70
2023/08/18 07:18:23;;;;;;;2.22;2.13;;;23.30;99.90;;;;;;5022740;28;20205;-70
2023/08/18 07:20:49;;;;;;;2.53;2.10;;;23.30;99.90;;;;;;5031202;28;20305;-70
2023/08/18 07:23:15;;;;;;;2.08;1.80;;;23.30;99.90;;;;;;5046659;28;20273;-71
2023/08/18 07:25:42;;;;;;;2.25;2.05;;;23.30;99.90;;;;;;5045072;28;20241;-70
2023/08/18 07:28:08;;;;;;;2.88;2.25;;;23.30;99.90;;;;;;5033650;28;20216;-70
2023/08/18 07:30:34;;;;;;;2.15;1.90;;;23.30;99.90;;;;;;5045901;28;20274;-70
2023/08/18 07:33:00;;;;;;;1.95;1.83;;;23.30;99.90;;;;;;5035985;28;20289;-69
2023/08/18 07:35:25;;;;;;;2.10;1.83;;;23.30;99.90;;;;;;5021067;28;20210;-69
2023/08/18 07:37:52;;;;;;;2.25;2.05;;;23.30;99.90;;;;;;5038337;28;20214;-71
2023/08/18 07:40:18;;;;;;;2.22;2.00;;;23.30;99.90;;;;;;5037839;28;20228;-70
2023/08/18 07:42:44;;;;;;;2.22;2.03;;;23.30;99.90;;;;;;5047097;28;20183;-70
2023/08/18 07:45:11;;;;;;;2.40;2.20;;;23.30;99.90;;;;;;5049132;28;20262;-69
2023/08/18 07:47:38;;;;;;;2.45;1.95;;;23.40;99.90;;;;;;5061271;28;20280;-70
2023/08/18 07:50:09;;;;;;;2.33;2.13;;;23.40;99.90;;;;;;5042076;28;20182;-71
2023/08/18 07:52:37;;;;;;;2.25;2.05;;;23.40;99.90;;;;;;5028685;28;20239;-70
2023/08/18 07:55:05;;;;;;;2.13;2.00;;;23.40;99.90;;;;;;5049774;28;20283;-71
2023/08/18 07:57:31;;;;;;;3.13;2.28;;;23.40;99.90;;;;;;5025185;28;20187;-71
2023/08/18 07:59:57;;;;;;;2.60;2.03;;;23.40;99.90;;;;;;5050968;28;20214;-71
2023/08/18 08:02:23;;;;;;;2.20;2.00;;;23.50;99.90;;;;;;5037289;28;20202;-69
2023/08/18 08:04:50;;;;;;;2.38;2.17;;;23.50;99.90;;;;;;5050879;28;20315;-70
2023/08/18 08:07:17;;;;;;;2.03;1.90;;;23.50;99.90;;;;;;5041644;28;20182;-71
2023/08/18 08:09:42;;;;;;;2.05;1.90;;;23.50;99.90;;;;;;5059705;28;20286;-70
2023/08/18 08:12:08;;;;;;;2.97;1.95;;;23.50;99.90;;;;;;5049321;28;20658;-70
2023/08/18 08:14:34;;;;;;;2.42;2.22;;;23.60;99.90;;;;;;5023608;28;20204;-71
2023/08/18 08:17:00;;;;;;;1.90;1.80;;;23.60;99.90;;;;;;5038205;28;20220;-70
2023/08/18 08:19:26;;;;;;;2.72;2.00;;;23.60;99.90;;;;;;5044909;28;20272;-70
2023/08/18 08:21:52;;;;;;;2.50;2.28;;;23.60;99.90;;;;;;5053590;28;20190;-70
2023/08/18 08:24:18;;;;;;;2.03;1.92;;;23.60;99.90;;;;;;5039614;28;20202;-70
2023/08/18 08:26:44;;;;;;;2.00;1.90;;;23.50;99.90;;;;;;5048901;28;20232;-70
2023/08/18 08:29:10;;;;;;;2.90;2.30;;;23.50;99.90;;;;;;5033888;28;20208;-71
2023/08/18 08:31:37;;;;;;;2.17;1.85;;;23.60;99.90;;;;;;5059653;28;20692;-70
2023/08/18 08:34:03;;;;;;;2.25;2.10;;;23.60;99.90;;;;;;5052964;28;20206;-70
2023/08/18 08:36:32;;;;;;;2.10;1.95;;;23.60;99.90;;;;;;5042200;28;20198;-71
2023/08/18 08:39:00;;;;;;;2.42;2.00;;;23.60;99.90;;;;;;5046847;28;20233;-71
2023/08/18 08:41:27;;;;;;;2.55;2.25;;;23.60;99.90;;;;;;5042176;28;20209;-70
2023/08/18 08:43:53;;;;;;;3.55;1.90;;;23.60;99.90;;;;;;5035951;28;20206;-71
2023/08/18 08:46:20;;;;;;;2.40;2.20;;;23.60;99.90;;;;;;5028237;28;20741;-70
2023/08/18 08:48:47;;;;;;;2.05;1.85;;;23.60;99.90;;;;;;5070170;28;20181;-71
2023/08/18 08:51:15;;;;;;;2.13;1.92;;;23.60;99.90;;;;;;5055701;28;20196;-70
2023/08/18 08:53:47;;;;;;;3.25;1.95;;;23.70;99.90;;;;;;5047473;28;20190;-70
2023/08/18 08:56:16;;;;;;;2.00;1.90;;;23.70;99.90;;;;;;5044469;28;20194;-71
2023/08/18 08:58:43;;;;;;;3.03;2.33;;;23.60;99.90;;;;;;5028116;28;20194;-70
2023/08/18 09:01:09;;;;;;;2.65;2.30;;;23.70;99.90;;;;;;5051650;28;20210;-71
2023/08/18 09:03:36;;;;;;;2.35;2.13;;;23.70;99.90;;;;;;5050106;28;20557;-71
2023/08/18 09:06:02;;;;;;;2.47;2.03;;;23.60;99.90;;;;;;5054368;28;20181;-70
2023/08/18 09:08:28;;;;;;;2.17;1.98;;;23.60;99.90;;;;;;5036033;28;20187;-72
2023/08/18 09:10:54;;;;;;;2.20;2.00;;;23.60;99.90;;;;;;5049319;28;20194;-71
2023/08/18 09:13:23;;;;;;;2.38;2.17;;;23.60;99.90;;;;;;5043935;28;20186;-71
2023/08/18 09:15:49;;;;;;;2.33;2.10;;;23.60;99.90;;;;;;5045521;28;20238;-71
2023/08/18 09:18:16;;;;;;;2.25;2.10;;;23.60;99.90;;;;;;5043889;28;20582;-71
2023/08/18 09:20:45;;;;;;;2.25;2.03;;;23.60;99.90;;;;;;5039427;28;20256;-71
2023/08/18 09:23:11;;;;;;;2.03;1.88;;;23.60;99.90;;;;;;5051120;28;20254;-69
2023/08/18 09:25:37;;;;;;;3.08;2.00;;;23.60;99.90;;;;;;5050048;28;20303;-70
2023/08/18 09:28:06;;;;;;;2.47;2.28;;;23.60;99.90;;;;;;5029839;28;20205;-69
2023/08/18 09:30:33;;;;;;;1.85;1.75;;;23.60;99.90;;;;;;5049227;28;20186;-70
2023/08/18 09:33:03;;;;;;;2.08;1.92;;;23.60;99.90;;;;;;5037726;28;20194;-69
2023/08/18 09:35:36;;;;;;;2.13;2.00;;;23.60;99.90;;;;;;5048721;28;20308;-70
2023/08/18 09:38:02;;;;;;;2.55;2.30;;;23.60;99.90;;;;;;5063700;28;20190;-70
2023/08/18 09:40:29;;;;;;;2.53;2.30;;;23.60;99.90;;;;;;5019016;28;20274;-70
2023/08/18 09:42:55;;;;;;;2.35;2.15;;;23.60;99.90;;;;;;5056777;28;20693;-69
2023/08/18 09:45:24;;;;;;;2.38;2.13;;;23.50;99.90;;;;;;5030606;28;20197;-69
2023/08/18 09:47:56;;;;;;;1.90;1.70;;;23.60;99.90;;;;;;5051310;28;20189;-70
2023/08/18 09:50:31;;;;;;;3.13;2.17;;;23.60;99.90;;;;;;5047903;28;20189;-69
2023/08/18 09:52:59;;;;;;;2.75;1.90;;;23.60;99.90;;;;;;5051634;28;20190;-69
2023/08/18 09:55:34;;;;;;;4.22;1.92;;;23.60;99.90;;;;;;5035310;28;20210;-70
2023/08/18 09:58:27;;;;;;;2.05;1.90;;;23.60;99.90;;;;;;5035294;28;20563;-69
2023/08/18 10:00:57;;;;;;;2.35;1.90;;;23.60;99.90;;;;;;5035037;28;20210;-70
2023/08/18 10:03:26;;;;;;;2.33;2.08;;;23.60;99.90;;;;;;5051140;28;20182;-70
2023/08/18 10:05:53;;;;;;;2.28;2.08;;;23.60;99.90;;;;;;5038838;28;20190;-70
2023/08/18 10:08:22;;;;;;;2.35;2.05;;;23.60;99.90;;;;;;5046460;28;20542;-70
2023/08/18 10:10:50;;;;;;;2.50;2.30;;;23.60;99.90;;;;;;5047687;28;20198;-70
2023/08/18 10:13:16;;;;;;;2.28;2.08;;;23.60;99.90;;;;;;5052927;28;20194;-69
2023/08/18 10:15:43;;;;;;;2.97;1.83;;;23.60;99.90;;;;;;5040386;28;20262;-70
2023/08/18 10:18:11;;;;;;;2.05;1.95;;;23.60;99.90;;;;;;5049204;28;20186;-70
2023/08/18 10:20:51;;;;;;;2.25;2.05;;;23.60;99.90;;;;;;5031589;28;20209;-70
2023/08/18 10:23:19;;;;;;;2.42;2.00;;;23.60;99.90;;;;;;5034879;28;20303;-70
2023/08/18 10:25:49;;;;;;;3.45;2.42;;;23.60;99.90;;;;;;5026218;28;20210;-70
2023/08/18 10:28:19;;;;;;;2.00;1.80;;;23.60;99.90;;;;;;5049679;28;20186;-70
2023/08/18 10:31:00;;;;;;;2.25;2.05;;;23.60;99.90;;;;;;5051192;28;20326;-70
2023/08/18 10:33:37;;;;;;;2.17;2.00;;;23.60;99.90;;;;;;5050859;28;20221;-70
2023/08/18 10:36:04;;;;;;;2.47;2.20;;;23.60;99.90;;;;;;5050525;28;20189;-70
2023/08/18 10:38:33;;;;;;;4.05;1.83;;;23.60;99.90;;;;;;5054295;28;20668;-70
2023/08/18 10:40:59;;;;;;;5.30;2.35;;;23.70;99.90;;;;;;5045690;28;20213;-70
2023/08/18 10:43:27;;;;;;;3.40;2.08;;;23.80;99.90;;;;;;5041930;28;20186;-69
2023/08/18 10:45:59;;;;;;;3.17;2.03;;;23.80;99.90;;;;;;5042637;28;20212;-70
2023/08/18 10:48:32;;;;;;;2.67;1.95;;;23.80;99.90;;;;;;5042175;28;20182;-70
2023/08/18 10:51:00;;;;;;;2.75;2.00;;;23.70;99.90;;;;;;5051726;28;20650;-71
2023/08/18 10:53:32;;;;;;;2.53;1.80;;;23.70;99.90;;;;;;5033979;28;20683;-70
2023/08/18 10:55:58;;;;;;;2.80;2.20;;;23.70;99.90;;;;;;5025897;28;20190;-71
2023/08/18 10:58:24;;;;;;;2.00;1.90;;;23.60;99.90;;;;;;5045373;28;20276;-71
2023/08/18 11:00:50;;;;;;;2.47;2.28;;;23.70;99.90;;;;;;5051421;28;20292;-71
2023/08/18 11:03:17;;;;;;;3.50;1.80;;;23.70;99.90;;;;;;5042139;28;20597;-70
2023/08/18 11:05:44;;;;;;;5.15;2.22;;;23.60;99.90;;;;;;5039781;28;20214;-71
2023/08/18 11:08:10;;;;;;;3.08;2.00;;;23.60;99.90;;;;;;5023025;28;20186;-71
2023/08/18 11:10:39;;;;;;;3.42;2.25;;;23.60;99.90;;;;;;5041736;28;20193;-71
2023/08/18 11:13:09;;;;;;;2.10;1.70;;;23.60;99.90;;;;;;5036203;28;20248;-70
2023/08/18 11:15:35;;;;;;;2.97;2.03;;;23.60;99.90;;;;;;5032895;28;20209;-71
2023/08/18 11:18:01;;;;;;;2.92;1.92;;;23.60;99.90;;;;;;5049875;28;20185;-71
2023/08/18 11:20:26;;;;;;;2.95;1.83;;;23.60;99.90;;;;;;5041759;28;20205;-70
2023/08/18 11:22:53;;;;;;;2.47;1.58;;;23.70;99.90;;;;;;5030117;28;20190;-72
2023/08/18 11:25:24;;;;;;;2.70;1.70;;;23.60;99.90;;;;;;5057716;28;20641;-71
2023/08/18 11:27:52;;;;;;;2.90;1.70;;;23.60;99.90;;;;;;5057771;28;20235;-71
2023/08/18 11:30:19;;;;;;;2.97;1.75;;;23.70;99.90;;;;;;5063502;28;20240;-71
2023/08/18 11:32:48;;;;;;;1.85;1.75;;;23.70;99.90;;;;;;5039495;28;20220;-71
2023/08/18 11:35:15;;;;;;;2.80;2.08;;;23.70;99.90;;;;;;5040175;28;20217;-70
2023/08/18 11:37:44;;;;;;;3.85;1.95;;;23.60;99.90;;;;;;5035350;28;20182;-70
2023/08/18 11:40:15;;;;;;;1.95;1.85;;;23.60;99.90;;;;;;5035961;28;20297;-67
2023/08/18 11:42:46;;;;;;;2.95;2.05;;;23.60;99.90;;;;;;5033554;28;20190;-70
2023/08/18 11:45:18;;;;;;;3.28;1.92;;;23.70;99.90;;;;;;5047380;28;20245;-70
2023/08/18 11:47:48;;;;;;;3.63;1.85;;;23.70;99.90;;;;;;5027738;28;20193;-70
2023/08/18 11:50:19;;;;;;;2.70;2.03;;;23.60;99.90;;;;;;5033273;28;20195;-71
2023/08/18 11:52:52;;;;;;;3.33;1.92;;;23.70;99.90;;;;;;5043911;28;20239;-71
2023/08/18 11:55:43;;;;;;;1.98;1.80;;;23.70;99.90;;;;;;5031090;28;20218;-70
2023/08/18 11:58:14;;;;;;;1.98;1.52;;;23.70;99.90;;;;;;5053618;28;20575;-69
2023/08/18 12:00:44;;;;;;;2.60;1.65;;;23.70;99.90;;;;;;5054780;28;20249;-70
2023/08/18 12:03:39;;;;;;;3.00;1.80;;;23.70;99.90;;;;;;5044954;28;20259;-72
2023/08/18 12:06:05;;;;;;;1.63;1.52;;;23.70;99.90;;;;;;5026774;28;20293;-70
2023/08/18 12:08:31;;;;;;;2.40;1.85;;;23.70;99.90;;;;;;5069841;28;20174;-69
2023/08/18 12:10:57;;;;;;;2.22;1.98;;;23.70;99.90;;;;;;5048651;28;20190;-70
2023/08/18 12:13:30;;;;;;;1.83;1.73;;;23.70;99.90;;;;;;5051702;28;20236;-69
2023/08/18 12:15:56;;;;;;;2.08;1.75;;;23.70;99.90;;;;;;5025704;28;20211;-71
2023/08/18 12:18:21;;;;;;;1.92;1.50;;;23.70;99.90;;;;;;5020105;28;20222;-70
2023/08/18 12:20:47;;;;;;;2.03;1.65;;;23.70;99.90;;;;;;5020370;28;20286;-70
2023/08/18 12:23:13;;;;;;;2.33;1.58;;;23.70;99.90;;;;;;5053476;28;20205;-69
2023/08/18 12:25:38;;;;;;;3.00;1.65;;;23.70;99.90;;;;;;5045077;28;20577;-69
2023/08/18 12:28:05;;;;;;;2.55;1.80;;;23.70;99.90;;;;;;5036778;28;20197;-70
2023/08/18 12:30:31;;;;;;;2.28;1.80;;;23.70;99.90;;;;;;5027760;28;20194;-70
2023/08/18 12:32:57;;;;;;;2.50;2.30;;;23.70;99.90;;;;;;5050125;28;20231;-70
2023/08/18 12:35:23;;;;;;;2.10;1.98;;;23.70;99.90;;;;;;5051226;28;20217;-70
2023/08/18 12:37:49;;;;;;;2.40;2.03;;;23.70;99.90;;;;;;5036841;28;20196;-70
2023/08/18 12:40:15;;;;;;;4.25;2.08;;;23.70;99.90;;;;;;5036678;28;20218;-70
2023/08/18 12:42:41;;;;;;;2.65;1.70;;;23.70;99.90;;;;;;5054216;28;20261;-69
2023/08/18 12:45:08;;;;;;;2.85;2.33;;;23.70;99.90;;;;;;5048619;28;20301;-70
2023/08/18 12:47:36;;;;;;;1.60;1.50;;;23.70;99.90;;;;;;5019925;28;20178;-70
2023/08/18 12:50:02;;;;;;;2.13;1.88;;;23.70;99.90;;;;;;5024467;28;20190;-70